Latest Coastal Weather Observations for Robe Airport

IDS60701

Issued at 8:51 pm CDT Friday 27 March 2015 (issued every 10 minutes, with the page automatically refreshed every 10 minutes)

About coastal observations | Map of coastal stations | Coastal observations for SA | Marine services | Other Formats
Station Details ID: 026105 Name: ROBE AIRFIELD Lat: -37.18 Lon: 139.81 Height: 3.0 m
Data from the previous 72 hours. | See also: Recent months at Robe Airport
Date/Time
CDT
Temp

°C
Wind Pressure Rain
since 9am
mm
Weather Cloud Vis
km
Sea
Height
m
Swell
Dir
 
Speed
knots
Gust
knots
hPa Trend Height
m
Period
s
Dir
27/08:30pm 13.1 SE 4 6 1027.1 - 0.0 - - - - - - -
27/08:00pm 14.2 SSE 6 8 1026.9 - 0.0 - - - - - - -
27/07:30pm 14.4 S 7 9 1027.0 - 0.0 - - - - - - -
27/07:00pm 14.3 S 8 10 1026.8 - 0.0 - - - - - - -
27/06:30pm 14.6 S 11 15 1026.6 - 0.0 - - - - - - -
27/06:00pm 15.2 SSW 8 11 1026.5 - 0.0 - - - - - - -
27/05:30pm 15.6 SSW 10 13 1026.5 - 0.0 - - - - - - -
27/05:00pm 16.6 SSW 11 14 1026.4 - 0.0 - - - - - - -
27/04:30pm 16.6 SSW 10 13 1026.5 - 0.0 - - - - - - -
27/04:00pm 16.2 SW 10 15 1026.5 - 0.0 - - - - - - -
27/03:30pm 16.3 SW 12 19 1026.6 - 0.0 - - - - - - -
27/03:00pm 14.6 SSW 9 12 1026.9 - 0.0 - - - - - - -
27/02:30pm 16.7 SSW 11 16 1027.0 - 0.0 - - - - - - -
27/02:00pm 16.3 S 13 17 1027.2 - 0.0 - - - - - - -
27/01:30pm 17.6 SSW 10 15 1027.4 - 0.0 - - - - - - -
27/01:00pm 16.4 SW 9 13 1027.7 - 0.0 - - - - - - -
27/12:30pm 16.9 SSW 7 12 1028.0 - 0.0 - - - - - - -
27/12:00pm 14.7 SSW 13 17 1028.3 - 0.0 - - - - - - -
27/11:30am 16.1 SW 8 12 1028.3 - 0.0 - - - - - - -
27/11:00am 15.9 SSW 10 16 1028.3 - 0.0 - - - - - - -
27/10:30am 15.5 SSW 11 14 1028.3 - 0.0 - - - - - - -
27/10:00am 15.4 SSW 12 16 1028.2 - 0.0 - - - - - - -
27/09:30am 14.8 SSW 11 16 1027.9 - 0.0 - - - - - - -
27/09:00am 12.9 SW 7 11 1027.9 - 3.2 - - - - - - -
27/08:30am 13.8 SSW 11 14 1027.6 - 3.2 - - - - - - -
27/08:00am 13.9 SSW 9 13 1027.3 - 3.2 - - - - - - -
27/07:30am 13.6 SSW 8 11 1026.9 - 3.2 - - - - - - -
27/07:00am 13.7 SW 9 13 1026.8 - 3.2 - - - - - - -
27/06:30am 13.5 SW 9 15 1026.7 - 3.2 - - - - - - -
27/06:00am 13.1 SSW 9 12 1026.4 - 3.2 - - - - - - -
27/05:30am 13.1 SSW 10 14 1026.0 - 3.2 - - - - - - -
27/05:00am 12.4 SSW 8 10 1025.9 - 3.2 - - - - - - -
27/04:30am 11.9 SSW 10 18 1025.8 - 3.2 - - - - - - -
27/04:00am 12.2 SSW 12 16 1025.9 - 3.2 - - - - - - -
27/03:30am 12.3 SW 8 12 1026.0 - 3.2 - - - - - - -
27/03:00am 12.2 SW 11 16 1026.1 - 3.2 - - - - - - -
27/02:30am 12.4 SW 11 17 1026.2 - 3.2 - - - - - - -
27/02:00am 12.2 SSW 9 13 1026.1 - 3.2 - - - - - - -
27/01:30am 12.0 SSW 6 11 1026.1 - 2.8 - - - - - - -
27/01:00am 12.4 SW 11 20 1026.1 - 2.6 - - - - - - -
27/12:30am 12.9 SW 9 14 1026.0 - 2.6 - - - - - - -
27/12:00am 12.6 SW 10 15 1026.0 - 2.4 - - - - - - -
 
Date/Time
CDT
Temp

°C
Wind Pressure Rain
since 9am
mm
Weather Cloud Vis
km
Sea
Height
m
Swell
Dir
 
Speed
knots
Gust
knots
hPa Trend Height
m
Period
s
Dir
26/11:30pm 12.2 SW 10 17 1026.1 - 2.4 - - - - - - -
26/11:00pm 12.2 SSW 13 21 1026.3 - 2.4 - - - - - - -
26/10:30pm 12.3 SW 9 15 1026.3 - 2.4 - - - - - - -
26/10:00pm 12.3 SW 12 18 1026.2 - 2.0 - - - - - - -
26/09:30pm 12.8 SW 13 21 1026.1 - 1.8 - - - - - - -
26/09:00pm 13.7 SW 11 20 1025.7 - 1.6 - - - - - - -
26/08:30pm 13.4 SW 11 17 1025.4 - 1.6 - - - - - - -
26/08:00pm 13.1 SW 15 22 1025.2 - 1.6 - - - - - - -
26/07:30pm 13.1 SW 14 21 1024.8 - 1.6 - - - - - - -
26/07:00pm 13.3 SW 12 19 1024.6 - 1.6 - - - - - - -
26/06:30pm 13.4 SW 12 21 1024.3 - 1.6 - - - - - - -
26/06:00pm 13.7 SW 12 21 1024.1 - 1.6 - - - - - - -
26/05:30pm 13.9 SW 11 17 1023.8 - 1.6 - - - - - - -
26/05:00pm 14.0 SW 13 19 1023.6 - 1.6 - - - - - - -
26/04:30pm 14.2 WSW 11 22 1023.5 - 1.6 - - - - - - -
26/04:00pm 13.4 SW 15 27 1023.4 - 1.6 - - - - - - -
26/03:35pm 14.6 WSW 15 28 1023.2 - 1.6 - - - - - - -
26/03:30pm 14.7 SW 15 23 1023.2 - 1.6 - - - - - - -
26/03:11pm 14.4 SW 16 29 1023.1 - 1.6 - - - - - - -
26/03:00pm 14.8 SW 15 25 1023.0 - 1.6 - - - - - - -
26/02:34pm 14.9 SW 16 27 1023.0 - 1.6 - - - - - - -
26/02:30pm 14.8 SW 15 23 1023.0 - 1.6 - - - - - - -
26/02:02pm 15.2 WSW 17 28 1023.1 - 1.6 - - - - - - -
26/02:00pm 15.7 WSW 16 25 1023.2 - 1.6 - - - - - - -
26/01:39pm 14.9 SW 16 26 1023.1 - 1.6 - - - - - - -
26/01:30pm 14.9 SW 18 28 1023.1 - 1.6 - - - - - - -
26/01:22pm 16.4 WSW 15 28 1022.9 - 1.6 - - - - - - -
26/01:00pm 14.5 WSW 13 23 1022.9 - 1.6 - - - - - - -
26/12:30pm 14.1 SW 17 28 1023.0 - 1.6 - - - - - - -
26/12:00pm 15.5 WSW 17 28 1022.7 - 1.6 Recent precip. - - - - - -
26/11:32am 14.6 WSW 15 25 1022.8 - 1.6 - - - - - - -
26/11:30am 14.3 WSW 13 24 1022.7 - 1.6 - - - - - - -
26/11:00am 14.9 WSW 15 26 1022.5 - 1.4 - - - - - - -
26/10:35am 13.3 WSW 15 26 1022.4 - 1.4 - - - - - - -
26/10:30am 12.4 WSW 15 24 1022.4 - 1.4 - - - - - - -
26/10:00am 11.7 SW 14 24 1022.3 - 0.6 - - - - - - -
26/09:30am 14.2 WSW 14 24 1021.6 - 0.0 - - - - - - -
26/09:00am 13.2 SW 14 23 1021.3 - 7.4 - - - - - - -
26/08:30am 12.7 SW 12 22 1020.9 - 7.4 - - - - - - -
26/08:00am 12.1 WSW 13 20 1020.5 - 7.4 - - - - - - -
26/07:30am 10.8 WSW 13 21 1020.1 - 7.4 - - - - - - -
26/07:00am 12.0 SW 15 22 1019.7 - 7.0 - - - - - - -
26/06:30am 12.4 WSW 12 20 1019.3 - 7.0 - - - - - - -
26/06:00am 12.0 WSW 11 19 1019.2 - 7.0 - - - - - - -
26/05:30am 11.8 SW 13 21 1018.9 - 7.0 - - - - - - -
26/05:00am 10.9 SW 15 24 1018.9 - 7.0 - - - - - - -
26/04:53am 11.2 SW 18 29 1018.8 - 7.0 - - - - - - -
26/04:49am 11.4 SW 15 29 1018.8 - 7.0 - - - - - - -
26/04:30am 11.0 WSW 11 22 1018.6 - 7.0 - - - - - - -
26/04:00am 10.9 SW 10 16 1018.4 - 7.0 - - - - - - -
26/03:30am 10.5 SW 17 30 1018.5 - 7.0 - - - - - - -
26/03:09am 10.3 SW 14 28 1018.4 - 7.0 - - - - - - -
26/03:06am 11.3 SW 13 28 1018.3 - 6.4 - - - - - - -
26/03:00am 10.9 SW 10 18 1018.2 - 6.2 - - - - - - -
26/02:30am 11.5 SW 14 25 1018.0 - 6.2 - - - - - - -
26/02:00am 12.0 WSW 12 19 1017.9 - 6.2 - - - - - - -
26/01:30am 12.6 WSW 13 21 1017.8 - 6.2 - - - - - - -
26/01:00am 12.2 WSW 10 16 1017.7 - 6.2 - - - - - - -
26/12:30am 11.8 W 9 14 1017.7 - 6.2 - - - - - - -
26/12:00am 12.2 WSW 10 18 1017.6 - 6.2 - - - - - - -
 
Date/Time
CDT
Temp

°C
Wind Pressure Rain
since 9am
mm
Weather Cloud Vis
km
Sea
Height
m
Swell
Dir
 
Speed
knots
Gust
knots
hPa Trend Height
m
Period
s
Dir
25/11:30pm 11.6 WSW 10 17 1017.7 - 6.2 - - - - - - -
25/11:00pm 11.7 WSW 12 20 1017.7 - 6.2 - - - - - - -
25/10:30pm 11.0 SW 13 20 1017.6 - 6.2 - - - - - - -
25/10:00pm 12.1 WSW 10 19 1017.1 - 5.8 - - - - - - -
25/09:30pm 12.5 WSW 11 16 1016.9 - 5.8 - - - - - - -
25/09:00pm 12.6 WSW 12 20 1016.5 - 5.8 - - - - - - -
25/08:30pm 12.6 WSW 11 22 1016.2 - 5.8 - - - - - - -
25/08:00pm 12.8 WSW 12 24 1015.6 - 5.8 - - - - - - -
25/07:30pm 12.7 W 10 24 1015.2 - 5.8 - - - - - - -
25/07:00pm 12.4 W 11 17 1015.0 - 5.6 - - - - - - -
25/06:30pm 11.3 W 11 19 1014.9 - 5.6 - - - - - - -
25/06:00pm 11.5 WSW 12 23 1015.0 - 4.8 Rain - - - - - -
25/05:30pm 11.5 WSW 16 23 1014.3 - 3.6 - - - - - - -
25/05:24pm 11.7 WSW 15 27 1014.2 - 3.6 - - - - - - -
25/05:00pm 12.3 WSW 13 24 1013.9 - 3.2 - - - - - - -
25/04:34pm 13.8 WNW 18 28 1013.1 - 2.4 - - - - - - -
25/04:30pm 14.8 WNW 19 27 1013.0 - 2.0 - - - - - - -
25/04:20pm 15.9 NW 20 30 1012.9 - 0.6 - - - - - - -
25/04:00pm 19.0 NNW 21 29 1012.6 - 0.0 - - - - - - -
25/03:30pm 18.8 NNW 21 27 1013.1 - 0.0 - - - - - - -
25/03:03pm 18.8 NNW 22 32 1013.5 - 0.0 - - - - - - -
25/03:00pm 18.9 NNW 23 32 1013.5 - 0.0 - - - - - - -
25/02:30pm 19.7 NNW 22 28 1013.8 - 0.0 - - - - - - -
25/02:00pm 20.0 NNW 20 27 1014.2 - 0.0 - - - - - - -
25/01:30pm 18.4 NW 18 24 1014.9 - 0.0 - - - - - - -
25/01:00pm 18.2 NW 17 24 1015.4 - 0.0 - - - - - - -
25/12:30pm 18.8 NNW 19 26 1015.7 - 0.0 - - - - - - -
25/12:00pm 18.4 NNW 17 23 1015.9 - 0.0 - - - - - - -
25/11:30am 17.8 NW 18 25 1016.6 - 0.0 - - - - - - -
25/11:00am 18.2 NW 17 25 1017.1 - 0.0 - - - - - - -
25/10:30am 16.9 NW 14 22 1017.4 - 0.0 - - - - - - -
25/10:00am 15.5 N 10 13 1017.6 - 0.0 - - - - - - -
25/09:30am 13.4 N 8 12 1017.8 - 0.0 - - - - - - -
25/09:00am 13.2 NNE 8 11 1017.7 - 0.0 - - - - - - -
25/08:30am 12.7 NNE 7 12 1017.6 - 0.0 - - - - - - -
25/08:00am 12.3 NNE 7 9 1018.1 - 0.0 - - - - - - -
25/07:30am 12.3 NNE 5 8 1018.1 - 0.0 - - - - - - -
25/07:00am 14.8 NW 8 13 1018.3 - 0.0 - - - - - - -
25/06:30am 14.6 NW 8 11 1018.3 - 0.0 - - - - - - -
25/06:00am 14.5 NW 8 11 1018.4 - 0.0 - - - - - - -
25/05:30am 14.4 NW 9 13 1018.5 - 0.0 - - - - - - -
25/05:00am 14.2 NNW 8 11 1018.6 - 0.0 - - - - - - -
25/04:30am 14.2 NW 7 12 1018.9 - 0.0 - - - - - - -
25/04:00am 13.4 WNW 2 6 1019.2 - 0.0 - - - - - - -
25/03:30am 12.8 NW 2 3 1019.5 - 0.0 - - - - - - -
25/03:00am 12.3 NNE 4 5 1019.6 - 0.0 - - - - - - -
25/02:30am 12.4 NNE 4 5 1019.9 - 0.0 - - - - - - -
25/02:00am 12.9 NW 4 5 1020.2 - 0.0 - - - - - - -
25/01:30am 12.2 NNE 3 4 1020.7 - 0.0 - - - - - - -
25/01:00am 12.4 N 3 4 1020.9 - 0.0 - - - - - - -
25/12:30am 12.5 CALM 0 0 1021.1 - 0.0 - - - - - - -
25/12:00am 12.6 CALM 0 0 1021.7 - 0.0 - - - - - - -
 
Date/Time
CDT
Temp

°C
Wind Pressure Rain
since 9am
mm
Weather Cloud Vis
km
Sea
Height
m
Swell
Dir
 
Speed
knots
Gust
knots
hPa Trend Height
m
Period
s
Dir
24/11:30pm 13.2 CALM 0 0 1022.0 - 0.0 - - - - - - -
24/11:00pm 13.5 W 1 2 1022.0 - 0.0 - - - - - - -
24/10:30pm 14.0 SW 3 6 1022.3 - 0.0 - - - - - - -
24/10:00pm 13.3 CALM 0 1 1022.3 - 0.0 - - - - - - -
24/09:30pm 14.0 S 4 9 1022.2 - 0.0 - - - - - - -
24/09:00pm 13.8 S 3 4 1022.4 - 0.0 - - - - - - -

Other Formats:

Comma delimited format used in spreadsheet applications
http://www.bom.gov.au/fwo/IDS60701/IDS60701.95816.axf

JavaScript Object Notation format (JSON) in row-major order
http://www.bom.gov.au/fwo/IDS60701/IDS60701.95816.json